UAL1067 KIAD-CYVR
Flight info
| Callsign | UAL1067 |
|---|---|
| Flight time | N/A |
| Altitude | 32000 |
| Route | MCRAY2 MCRAY Q178 DJB DCT PMM J70 BAE J68 GEP J36 FAR DCT ISN/N0458F340 DCT PEMDU DCT BEVEL DCT ETLEM DCT YXC DCT BOOTH CANUC6 |
| Aircraft | A21N/M-SDE2E3FGHIRWXY/LB1 |
Departure
| Time | N/A |
|---|---|
| Airport | Washington Dulles International Airport (KIAD) |
Arrival
| Time | 2026-04-30 01:33 |
|---|---|
| Airport | Vancouver International Airport (CYVR) |
| Time | Latitude | Longitude | Altitude | Speed | Heading |
|---|---|---|---|---|---|
| 2026-04-30 00:57 | 49.57764 | -118.09425 | 34231 ft | 442 kts | 274° |
| 2026-04-30 00:57 | 49.57777 | -118.14166 | 34234 ft | 442 kts | 274° |
| 2026-04-30 00:58 | 49.57798 | -118.23577 | 34238 ft | 442 kts | 274° |
| 2026-04-30 00:58 | 49.57812 | -118.33054 | 34238 ft | 442 kts | 274° |
| 2026-04-30 00:59 | 49.57811 | -118.42530 | 34243 ft | 442 kts | 274° |
| 2026-04-30 00:59 | 49.57809 | -118.52000 | 34232 ft | 442 kts | 274° |
| 2026-04-30 01:00 | 49.57801 | -118.61490 | 34245 ft | 443 kts | 274° |
| 2026-04-30 01:00 | 49.57786 | -118.70977 | 34247 ft | 443 kts | 274° |
| 2026-04-30 01:01 | 49.57760 | -118.80465 | 34245 ft | 443 kts | 274° |
| 2026-04-30 01:01 | 49.57727 | -118.89952 | 34248 ft | 443 kts | 274° |
| 2026-04-30 01:02 | 49.57687 | -118.99445 | 34241 ft | 443 kts | 274° |
| 2026-04-30 01:02 | 49.57639 | -119.08929 | 34213 ft | 443 kts | 275° |
| 2026-04-30 01:03 | 49.57583 | -119.18417 | 34231 ft | 443 kts | 275° |
| 2026-04-30 01:03 | 49.57520 | -119.27892 | 34220 ft | 443 kts | 275° |
| 2026-04-30 01:04 | 49.57447 | -119.37381 | 34219 ft | 443 kts | 274° |
| 2026-04-30 01:04 | 49.57368 | -119.46855 | 34221 ft | 443 kts | 274° |
| 2026-04-30 01:05 | 49.57279 | -119.56341 | 34195 ft | 443 kts | 275° |
| 2026-04-30 01:05 | 49.57185 | -119.65814 | 34213 ft | 442 kts | 275° |
| 2026-04-30 01:06 | 49.57084 | -119.75213 | 34221 ft | 442 kts | 275° |
| 2026-04-30 01:06 | 49.56973 | -119.84683 | 34221 ft | 440 kts | 275° |
| 2026-04-30 01:07 | 49.56855 | -119.94028 | 34227 ft | 436 kts | 275° |
| 2026-04-30 01:07 | 49.56734 | -120.03458 | 34242 ft | 443 kts | 275° |
| 2026-04-30 01:08 | 49.56599 | -120.12927 | 34242 ft | 441 kts | 275° |
| 2026-04-30 01:08 | 49.56459 | -120.22372 | 34241 ft | 441 kts | 275° |
| 2026-04-30 01:09 | 49.56308 | -120.31825 | 34244 ft | 441 kts | 275° |
| 2026-04-30 01:09 | 49.56150 | -120.41200 | 34239 ft | 433 kts | 275° |
| 2026-04-30 01:10 | 49.55993 | -120.50544 | 34246 ft | 441 kts | 275° |
| 2026-04-30 01:10 | 49.55909 | -120.55254 | 34081 ft | 437 kts | 275° |
| 2026-04-30 01:10 | 49.55821 | -120.59936 | 33698 ft | 437 kts | 276° |
| 2026-04-30 01:11 | 49.55733 | -120.64617 | 33371 ft | 438 kts | 276° |
| 2026-04-30 01:11 | 49.55644 | -120.69308 | 33100 ft | 439 kts | 275° |
| 2026-04-30 01:11 | 49.55553 | -120.74003 | 32839 ft | 439 kts | 275° |
| 2026-04-30 01:11 | 49.55460 | -120.78716 | 32589 ft | 441 kts | 275° |
| 2026-04-30 01:12 | 49.55363 | -120.83442 | 32327 ft | 442 kts | 275° |
| 2026-04-30 01:12 | 49.55264 | -120.88179 | 32073 ft | 443 kts | 275° |
| 2026-04-30 01:12 | 49.55162 | -120.92929 | 31649 ft | 443 kts | 275° |
| 2026-04-30 01:12 | 49.55060 | -120.97659 | 30910 ft | 442 kts | 274° |
| 2026-04-30 01:13 | 49.54956 | -121.02382 | 30088 ft | 441 kts | 274° |
| 2026-04-30 01:13 | 49.54851 | -121.07092 | 29195 ft | 440 kts | 274° |
| 2026-04-30 01:13 | 49.54743 | -121.11818 | 28505 ft | 444 kts | 274° |
| 2026-04-30 01:13 | 49.54633 | -121.16561 | 27831 ft | 442 kts | 273° |
| 2026-04-30 01:14 | 49.54521 | -121.21265 | 27140 ft | 438 kts | 273° |
| 2026-04-30 01:14 | 49.54408 | -121.25936 | 26465 ft | 434 kts | 272° |
| 2026-04-30 01:14 | 49.54294 | -121.30559 | 25806 ft | 431 kts | 272° |
| 2026-04-30 01:14 | 49.54181 | -121.35158 | 25165 ft | 428 kts | 271° |
| 2026-04-30 01:15 | 49.54065 | -121.39733 | 24491 ft | 427 kts | 270° |
| 2026-04-30 01:15 | 49.53949 | -121.44292 | 23835 ft | 426 kts | 270° |
| 2026-04-30 01:15 | 49.53831 | -121.48834 | 23074 ft | 424 kts | 270° |
| 2026-04-30 01:15 | 49.53711 | -121.53350 | 22367 ft | 421 kts | 270° |
| 2026-04-30 01:16 | 49.53590 | -121.57845 | 21639 ft | 419 kts | 270° |
| 2026-04-30 01:16 | 49.53468 | -121.62313 | 20969 ft | 416 kts | 270° |
| 2026-04-30 01:16 | 49.53345 | -121.66749 | 20330 ft | 414 kts | 270° |
| 2026-04-30 01:16 | 49.53224 | -121.71099 | 19736 ft | 410 kts | 270° |
| 2026-04-30 01:17 | 49.53100 | -121.75474 | 19151 ft | 408 kts | 270° |
| 2026-04-30 01:17 | 49.52976 | -121.79831 | 18584 ft | 407 kts | 270° |
| 2026-04-30 01:17 | 49.52850 | -121.84169 | 17957 ft | 404 kts | 270° |
| 2026-04-30 01:17 | 49.52722 | -121.88463 | 17261 ft | 400 kts | 269° |
| 2026-04-30 01:18 | 49.52595 | -121.92718 | 16600 ft | 395 kts | 269° |
| 2026-04-30 01:18 | 49.52469 | -121.96904 | 16025 ft | 388 kts | 269° |
| 2026-04-30 01:18 | 49.52318 | -122.01018 | 15500 ft | 382 kts | 266° |
| 2026-04-30 01:18 | 49.51791 | -122.04983 | 14947 ft | 376 kts | 252° |
| 2026-04-30 01:19 | 49.50703 | -122.08570 | 14488 ft | 364 kts | 240° |
| 2026-04-30 01:19 | 49.49396 | -122.11814 | 14132 ft | 350 kts | 238° |
| 2026-04-30 01:19 | 49.48111 | -122.14918 | 13787 ft | 337 kts | 238° |
| 2026-04-30 01:19 | 49.46877 | -122.17910 | 13376 ft | 326 kts | 238° |
| 2026-04-30 01:20 | 49.45710 | -122.20808 | 13053 ft | 313 kts | 239° |
| 2026-04-30 01:20 | 49.44596 | -122.23606 | 12771 ft | 300 kts | 239° |
| 2026-04-30 01:20 | 49.43537 | -122.26278 | 12559 ft | 286 kts | 239° |
| 2026-04-30 01:20 | 49.42520 | -122.28836 | 12285 ft | 277 kts | 239° |
| 2026-04-30 01:21 | 49.41524 | -122.31338 | 11833 ft | 273 kts | 238° |
| 2026-04-30 01:21 | 49.40535 | -122.33818 | 11349 ft | 271 kts | 238° |
| 2026-04-30 01:21 | 49.39424 | -122.36136 | 10881 ft | 269 kts | 229° |
| 2026-04-30 01:21 | 49.38193 | -122.38282 | 10423 ft | 267 kts | 227° |
| 2026-04-30 01:22 | 49.36959 | -122.40397 | 9950 ft | 265 kts | 227° |
| 2026-04-30 01:22 | 49.35735 | -122.42494 | 9520 ft | 263 kts | 227° |
| 2026-04-30 01:22 | 49.34514 | -122.44582 | 9138 ft | 262 kts | 227° |
| 2026-04-30 01:22 | 49.33293 | -122.46659 | 8778 ft | 261 kts | 227° |
| 2026-04-30 01:23 | 49.32077 | -122.48721 | 8437 ft | 260 kts | 227° |
| 2026-04-30 01:23 | 49.30867 | -122.50777 | 8100 ft | 259 kts | 227° |
| 2026-04-30 01:23 | 49.29668 | -122.52813 | 7673 ft | 257 kts | 227° |
| 2026-04-30 01:23 | 49.28473 | -122.54840 | 7240 ft | 256 kts | 227° |
| 2026-04-30 01:24 | 49.27284 | -122.56867 | 6822 ft | 255 kts | 227° |
| 2026-04-30 01:24 | 49.26106 | -122.58878 | 6455 ft | 251 kts | 227° |
| 2026-04-30 01:24 | 49.24963 | -122.60824 | 6240 ft | 240 kts | 228° |
| 2026-04-30 01:24 | 49.23868 | -122.62691 | 5989 ft | 232 kts | 228° |
| 2026-04-30 01:25 | 49.22814 | -122.64486 | 5905 ft | 224 kts | 228° |
| 2026-04-30 01:25 | 49.22120 | -122.65664 | 5955 ft | 225 kts | 228° |
| 2026-04-30 01:25 | 49.21074 | -122.67444 | 5969 ft | 225 kts | 228° |
| 2026-04-30 01:25 | 49.20021 | -122.69166 | 5722 ft | 217 kts | 225° |
| 2026-04-30 01:26 | 49.18967 | -122.70735 | 5509 ft | 208 kts | 224° |
| 2026-04-30 01:26 | 49.17617 | -122.72757 | 5083 ft | 202 kts | 225° |
| 2026-04-30 01:26 | 49.16643 | -122.74230 | 4851 ft | 193 kts | 225° |
| 2026-04-30 01:26 | 49.16002 | -122.75202 | 4881 ft | 193 kts | 225° |
| 2026-04-30 01:27 | 49.14745 | -122.77125 | 4938 ft | 191 kts | 227° |
| 2026-04-30 01:27 | 49.14106 | -122.78845 | 4556 ft | 188 kts | 262° |
| 2026-04-30 01:27 | 49.14116 | -122.80185 | 4286 ft | 187 kts | 277° |
| 2026-04-30 01:27 | 49.14365 | -122.82142 | 4027 ft | 188 kts | 283° |
| 2026-04-30 01:28 | 49.14660 | -122.84099 | 3975 ft | 189 kts | 283° |
| 2026-04-30 01:28 | 49.14936 | -122.86063 | 3857 ft | 189 kts | 282° |
| 2026-04-30 01:28 | 49.15191 | -122.88025 | 3660 ft | 188 kts | 281° |
| 2026-04-30 01:28 | 49.15466 | -122.89936 | 3432 ft | 186 kts | 281° |
| 2026-04-30 01:29 | 49.15698 | -122.91876 | 3185 ft | 185 kts | 280° |
| 2026-04-30 01:29 | 49.15922 | -122.93814 | 2939 ft | 185 kts | 280° |
| 2026-04-30 01:29 | 49.16143 | -122.95740 | 2693 ft | 184 kts | 280° |
| 2026-04-30 01:29 | 49.16362 | -122.97660 | 2449 ft | 183 kts | 280° |
| 2026-04-30 01:30 | 49.16581 | -122.99572 | 2197 ft | 183 kts | 280° |
| 2026-04-30 01:30 | 49.16799 | -123.01483 | 1959 ft | 181 kts | 280° |
| 2026-04-30 01:30 | 49.17009 | -123.03319 | 1745 ft | 169 kts | 279° |
| 2026-04-30 01:30 | 49.17197 | -123.04971 | 1510 ft | 147 kts | 279° |
| 2026-04-30 01:31 | 49.17363 | -123.06423 | 1303 ft | 136 kts | 279° |
| 2026-04-30 01:31 | 49.17524 | -123.07840 | 1122 ft | 134 kts | 279° |
| 2026-04-30 01:31 | 49.17584 | -123.08361 | 1057 ft | 133 kts | 279° |
| 2026-04-30 01:31 | 49.17659 | -123.09016 | 965 ft | 134 kts | 279° |
| 2026-04-30 01:32 | 49.17819 | -123.10417 | 785 ft | 134 kts | 278° |
| 2026-04-30 01:32 | 49.17976 | -123.11811 | 641 ft | 132 kts | 279° |
| 2026-04-30 01:32 | 49.18138 | -123.13179 | 419 ft | 130 kts | 278° |
| 2026-04-30 01:32 | 49.18289 | -123.14544 | 235 ft | 131 kts | 279° |
| 2026-04-30 01:33 | 49.18463 | -123.15905 | 55 ft | 130 kts | 277° |
| 2026-04-30 01:33 | 49.18610 | -123.17240 | 27 ft | 121 kts | 277° |
| 2026-04-30 01:33 | 49.18725 | -123.18281 | 22 ft | 70 kts | 279° |
| 2026-04-30 01:33 | 49.18782 | -123.18787 | 22 ft | 36 kts | 281° |
| 2026-04-30 01:34 | 49.18826 | -123.19162 | 22 ft | 36 kts | 279° |
| 2026-04-30 01:34 | 49.18869 | -123.19491 | 25 ft | 29 kts | 295° |
| 2026-04-30 01:34 | 49.18959 | -123.19677 | 23 ft | 15 kts | 310° |
| 2026-04-30 01:34 | 49.19031 | -123.19805 | 23 ft | 17 kts | 320° |
| 2026-04-30 01:35 | 49.19146 | -123.19851 | 22 ft | 19 kts | 24° |
| 2026-04-30 01:35 | 49.19258 | -123.19744 | 24 ft | 20 kts | 52° |
| 2026-04-30 01:35 | 49.19295 | -123.19538 | 22 ft | 21 kts | 77° |
| 2026-04-30 01:35 | 49.19327 | -123.19313 | 20 ft | 22 kts | 78° |
| 2026-04-30 01:36 | 49.19351 | -123.19080 | 22 ft | 15 kts | 79° |
| 2026-04-30 01:36 | 49.19362 | -123.18954 | 22 ft | 13 kts | 106° |
| 2026-04-30 01:36 | 49.19296 | -123.18853 | 23 ft | 15 kts | 141° |
| 2026-04-30 01:36 | 49.19211 | -123.18750 | 24 ft | 16 kts | 142° |
| 2026-04-30 01:37 | 49.19139 | -123.18623 | 23 ft | 12 kts | 79° |
| 2026-04-30 01:37 | 49.19168 | -123.18560 | 24 ft | 5 kts | 37° |
| 2026-04-30 01:37 | 49.19174 | -123.18553 | 24 ft | 0 kts | 37° |
| 2026-04-30 01:38 | 49.19175 | -123.18552 | 23 ft | 1 kts | 38° |
| 2026-04-30 01:38 | 49.19177 | -123.18526 | 23 ft | 4 kts | 100° |
| 2026-04-30 01:38 | 49.19157 | -123.18469 | 24 ft | 8 kts | 122° |
| 2026-04-30 01:38 | 49.19137 | -123.18372 | 23 ft | 11 kts | 95° |
| 2026-04-30 01:39 | 49.19139 | -123.18270 | 23 ft | 4 kts | 83° |
| 2026-04-30 01:39 | 49.19152 | -123.18242 | 25 ft | 2 kts | 45° |
| 2026-04-30 01:39 | 49.19166 | -123.18220 | 26 ft | 5 kts | 45° |
| 2026-04-30 01:39 | 49.19188 | -123.18209 | 25 ft | 0 kts | 15° |
| 2026-04-30 01:41 | 49.19189 | -123.18209 | 23 ft | 0 kts | 10° |
| 2026-04-30 01:41 | 49.19198 | -123.18206 | 24 ft | 0 kts | 10° |